Time;durP1;ratioP1;P1;durP2;ratioP2;P2;SDS_P1;SDS_P2;PMS_P1;PMS_P2;Temp;Humidity;BMP_temperature;BMP_pressure;BME280_temperature;BME280_humidity;BME280_pressure;Samples;Min_cycle;Max_cycle;Signal;HPM_P1;HPM_P2
2024/03/01 00:01:27;;;;;;;7.78;4.88;;;9.10;99.90;;;;;;4977579;28;20044;-71
2024/03/01 00:03:54;;;;;;;5.50;4.13;;;9.10;99.90;;;;;;4977270;28;20173;-71
2024/03/01 00:06:21;;;;;;;8.48;7.68;;;9.10;99.90;;;;;;4994827;28;20038;-71
2024/03/01 00:08:48;;;;;;;4.97;4.35;;;9.10;99.90;;;;;;5009611;28;20054;-71
2024/03/01 00:11:15;;;;;;;9.68;6.53;;;9.00;99.90;;;;;;4993572;28;20058;-71
2024/03/01 00:13:42;;;;;;;6.97;4.65;;;9.00;99.90;;;;;;5009428;28;20484;-71
2024/03/01 00:16:10;;;;;;;4.90;3.97;;;9.10;99.90;;;;;;4994683;28;20039;-71
2024/03/01 00:18:37;;;;;;;9.88;7.43;;;9.10;99.90;;;;;;4993380;28;20158;-71
2024/03/01 00:21:04;;;;;;;5.18;3.55;;;9.10;99.90;;;;;;4993337;28;20077;-71
2024/03/01 00:23:31;;;;;;;9.00;4.68;;;9.10;99.90;;;;;;4993400;28;20051;-71
2024/03/01 00:25:58;;;;;;;3.58;3.08;;;9.10;99.90;;;;;;4994409;28;20050;-71
2024/03/01 00:28:25;;;;;;;5.57;4.65;;;9.10;99.90;;;;;;4993142;28;20100;-70
2024/03/01 00:30:52;;;;;;;6.82;5.38;;;9.10;99.90;;;;;;4993065;28;20503;-71
2024/03/01 00:33:19;;;;;;;6.03;4.18;;;9.10;99.90;;;;;;4992937;28;20046;-71
2024/03/01 00:35:47;;;;;;;5.63;4.13;;;9.10;99.90;;;;;;4992753;28;20066;-71
2024/03/01 00:38:14;;;;;;;7.60;4.32;;;9.10;99.90;;;;;;4992993;28;20038;-71
2024/03/01 00:40:41;;;;;;;5.18;4.03;;;9.10;99.90;;;;;;4976519;28;20074;-71
2024/03/01 00:43:08;;;;;;;6.95;4.63;;;9.10;99.90;;;;;;4976917;28;20531;-70
2024/03/01 00:45:35;;;;;;;8.50;6.00;;;9.10;99.90;;;;;;4992815;28;20101;-71
2024/03/01 00:48:08;;;;;;;7.65;4.90;;;9.10;99.90;;;;;;4994161;28;20442;-71
2024/03/01 00:50:35;;;;;;;7.88;5.57;;;9.10;99.90;;;;;;5009228;28;20475;-71
2024/03/01 00:53:04;;;;;;;6.15;4.70;;;9.10;99.90;;;;;;4992513;28;20057;-71
2024/03/01 00:55:31;;;;;;;7.72;3.88;;;9.20;99.90;;;;;;4992565;28;20057;-71
2024/03/01 00:57:59;;;;;;;6.75;5.65;;;9.20;99.90;;;;;;5008794;28;20463;-71
2024/03/01 01:00:26;;;;;;;6.28;3.83;;;9.20;99.90;;;;;;4992922;28;20108;-70
2024/03/01 01:02:54;;;;;;;5.97;3.63;;;9.20;99.90;;;;;;4993582;28;20510;-71
2024/03/01 01:05:22;;;;;;;6.28;5.00;;;9.20;99.90;;;;;;4993761;28;20479;-71
2024/03/01 01:07:50;;;;;;;7.25;4.82;;;9.20;99.90;;;;;;4992136;28;20439;-71
2024/03/01 01:10:17;;;;;;;6.30;4.20;;;9.20;99.90;;;;;;4992447;28;20038;-71
2024/03/01 01:12:44;;;;;;;4.82;3.72;;;9.20;99.90;;;;;;4992438;28;20148;-70
2024/03/01 01:15:11;;;;;;;5.35;4.70;;;9.20;99.90;;;;;;4992341;28;20447;-71
2024/03/01 01:17:40;;;;;;;4.07;3.45;;;9.20;99.90;;;;;;4993412;28;20504;-71
2024/03/01 01:20:07;;;;;;;5.38;4.85;;;9.20;99.90;;;;;;4993258;28;20061;-71
2024/03/01 01:22:34;;;;;;;4.10;3.72;;;9.20;99.90;;;;;;4993310;28;20113;-71
2024/03/01 01:25:01;;;;;;;4.18;3.42;;;9.20;99.90;;;;;;4975950;28;20042;-71
2024/03/01 01:27:29;;;;;;;7.70;4.15;;;9.10;99.90;;;;;;5008486;28;20129;-71
2024/03/01 01:29:56;;;;;;;4.25;3.85;;;9.10;99.90;;;;;;4991964;28;20050;-70
2024/03/01 01:32:23;;;;;;;4.25;2.92;;;9.10;99.90;;;;;;4976125;28;20046;-71
2024/03/01 01:34:50;;;;;;;4.80;3.50;;;9.10;99.90;;;;;;4992889;28;20058;-70
2024/03/01 01:37:17;;;;;;;3.95;3.10;;;9.10;99.90;;;;;;4992337;28;20042;-71
2024/03/01 01:39:45;;;;;;;4.63;3.08;;;9.10;99.90;;;;;;4993250;28;20046;-71
2024/03/01 01:42:12;;;;;;;8.10;4.47;;;9.10;99.90;;;;;;4975767;28;20045;-71
2024/03/01 01:44:39;;;;;;;6.72;4.82;;;9.10;99.90;;;;;;4959904;28;20051;-71
2024/03/01 01:47:06;;;;;;;4.78;3.70;;;9.00;99.90;;;;;;5007962;28;20042;-71
2024/03/01 01:49:33;;;;;;;3.08;2.75;;;9.10;99.90;;;;;;4991971;28;20078;-71
2024/03/01 01:52:01;;;;;;;4.90;4.03;;;9.10;99.90;;;;;;5024472;28;20133;-71
2024/03/01 01:54:29;;;;;;;4.13;3.10;;;9.10;99.90;;;;;;4991695;28;20507;-70
2024/03/01 01:56:56;;;;;;;5.00;3.38;;;9.10;99.90;;;;;;5008236;28;20042;-71
2024/03/01 01:59:23;;;;;;;6.25;4.90;;;9.10;99.90;;;;;;4975767;28;20093;-70
2024/03/01 02:01:50;;;;;;;5.60;4.18;;;9.00;99.90;;;;;;4992852;28;20042;-71
2024/03/01 02:04:17;;;;;;;7.10;5.13;;;9.10;99.90;;;;;;4991693;28;20488;-70
2024/03/01 02:06:44;;;;;;;4.45;3.47;;;9.00;99.90;;;;;;4995157;28;20042;-70
2024/03/01 02:09:12;;;;;;;7.05;5.10;;;9.00;99.90;;;;;;5028271;28;20051;-70
2024/03/01 02:11:42;;;;;;;5.75;4.40;;;9.00;99.90;;;;;;5011935;28;20101;-70
2024/03/01 02:14:09;;;;;;;6.72;4.28;;;9.00;99.90;;;;;;5011735;28;20050;-71
2024/03/01 02:16:37;;;;;;;5.88;4.70;;;9.10;99.90;;;;;;4996825;28;20047;-70
2024/03/01 02:19:10;;;;;;;4.45;4.05;;;9.00;99.90;;;;;;4995440;28;20058;-70
2024/03/01 02:21:40;;;;;;;6.30;4.57;;;9.00;99.90;;;;;;4995686;28;20039;-70
2024/03/01 02:24:08;;;;;;;5.35;4.18;;;9.00;99.90;;;;;;4995332;28;20074;-70
2024/03/01 02:26:35;;;;;;;4.22;3.25;;;9.00;99.90;;;;;;4995766;28;20046;-71
2024/03/01 02:29:02;;;;;;;5.30;3.58;;;9.00;99.90;;;;;;5011508;28;20500;-70
2024/03/01 02:31:29;;;;;;;4.97;4.28;;;9.00;99.90;;;;;;4995330;28;20105;-71
2024/03/01 02:33:56;;;;;;;5.88;4.88;;;9.10;99.90;;;;;;4996169;28;20490;-70
2024/03/01 02:36:24;;;;;;;4.75;3.67;;;9.00;99.90;;;;;;4996591;28;20835;-71
2024/03/01 02:38:51;;;;;;;5.57;4.15;;;9.10;99.90;;;;;;5028025;28;20077;-71
2024/03/01 02:41:18;;;;;;;6.05;5.13;;;9.00;99.90;;;;;;4996147;28;20050;-70
2024/03/01 02:43:45;;;;;;;7.25;5.10;;;9.00;99.90;;;;;;4995157;28;20057;-70
2024/03/01 02:46:12;;;;;;;6.32;5.18;;;9.00;99.90;;;;;;4996113;28;20046;-71
2024/03/01 02:48:39;;;;;;;6.80;4.63;;;8.90;99.90;;;;;;5011464;28;20049;-70
2024/03/01 02:51:06;;;;;;;6.30;3.67;;;8.90;99.90;;;;;;4978794;28;20054;-71
2024/03/01 02:53:33;;;;;;;6.55;4.75;;;8.90;99.90;;;;;;4995009;28;20108;-70
2024/03/01 02:56:00;;;;;;;5.95;5.25;;;8.90;99.90;;;;;;4996070;28;20054;-70
2024/03/01 02:58:26;;;;;;;5.22;4.72;;;8.90;99.90;;;;;;4996152;28;20484;-71
2024/03/01 03:00:53;;;;;;;9.30;6.10;;;8.90;99.90;;;;;;4996161;28;20056;-70
2024/03/01 03:03:21;;;;;;;6.72;3.95;;;8.90;99.90;;;;;;4994476;28;20149;-70
2024/03/01 03:05:48;;;;;;;7.43;6.22;;;8.90;99.90;;;;;;4978713;28;20047;-70
2024/03/01 03:08:14;;;;;;;4.38;3.05;;;8.90;99.90;;;;;;4995793;28;20491;-70
2024/03/01 03:10:41;;;;;;;7.25;6.47;;;8.80;99.90;;;;;;4994556;28;20096;-70
2024/03/01 03:13:08;;;;;;;7.22;5.00;;;8.90;99.90;;;;;;4994400;28;20053;-71
2024/03/01 03:15:35;;;;;;;9.45;7.28;;;8.80;99.90;;;;;;4994703;28;20046;-70
2024/03/01 03:18:03;;;;;;;7.18;5.55;;;8.90;99.90;;;;;;4994269;28;20081;-71
2024/03/01 03:20:35;;;;;;;12.20;8.88;;;8.90;99.90;;;;;;4995646;28;20403;-70
2024/03/01 03:23:05;;;;;;;10.88;6.00;;;8.80;99.90;;;;;;4994199;28;20053;-71
2024/03/01 03:25:31;;;;;;;6.32;4.55;;;8.80;99.90;;;;;;4995595;28;20039;-70
2024/03/01 03:27:59;;;;;;;10.45;8.05;;;8.90;99.90;;;;;;4994364;28;20050;-71
2024/03/01 03:30:25;;;;;;;8.27;5.68;;;8.80;99.90;;;;;;4994068;28;20049;-70
2024/03/01 03:32:52;;;;;;;4.85;4.20;;;8.80;99.90;;;;;;4995568;28;20042;-70
2024/03/01 03:35:19;;;;;;;9.63;7.53;;;8.80;99.90;;;;;;4993932;28;20058;-71
2024/03/01 03:37:46;;;;;;;6.38;4.70;;;8.80;99.90;;;;;;4994237;28;20070;-70
2024/03/01 03:40:14;;;;;;;10.90;6.75;;;8.90;99.90;;;;;;4993851;28;20054;-70
2024/03/01 03:42:44;;;;;;;5.80;5.00;;;8.80;99.90;;;;;;5010230;28;20042;-70
2024/03/01 03:45:11;;;;;;;10.27;7.57;;;8.80;99.90;;;;;;4995132;28;20093;-70
2024/03/01 03:47:38;;;;;;;7.47;6.70;;;8.80;99.90;;;;;;4995289;28;20399;-70
2024/03/01 03:50:07;;;;;;;7.65;6.05;;;8.80;99.90;;;;;;4994996;28;20045;-70
2024/03/01 03:52:35;;;;;;;8.77;7.10;;;8.80;99.90;;;;;;4993806;28;20054;-70
2024/03/01 03:55:06;;;;;;;8.15;6.70;;;8.80;99.90;;;;;;5010053;28;20046;-70
2024/03/01 03:57:33;;;;;;;9.10;6.72;;;8.80;99.90;;;;;;4995063;28;20054;-71
2024/03/01 04:00:09;;;;;;;6.80;5.18;;;8.80;99.90;;;;;;4993697;28;20077;-70
2024/03/01 04:02:36;;;;;;;5.25;4.70;;;8.80;99.90;;;;;;5009347;28;20062;-71
2024/03/01 04:05:05;;;;;;;7.90;7.00;;;8.80;99.90;;;;;;4992039;28;20050;-70
2024/03/01 04:07:32;;;;;;;8.75;6.60;;;8.80;99.90;;;;;;4993227;28;20057;-70
2024/03/01 04:10:00;;;;;;;6.07;4.18;;;8.80;99.90;;;;;;4992708;28;20050;-70
2024/03/01 04:12:27;;;;;;;4.07;3.40;;;8.80;99.90;;;;;;5009612;28;20038;-71
2024/03/01 04:14:54;;;;;;;8.95;5.53;;;8.80;99.90;;;;;;4994846;28;20058;-70
2024/03/01 04:17:21;;;;;;;12.20;8.25;;;8.80;99.90;;;;;;4994510;28;20092;-70
2024/03/01 04:19:48;;;;;;;8.30;4.82;;;8.70;99.90;;;;;;4993428;28;20050;-70
2024/03/01 04:22:15;;;;;;;9.13;6.30;;;8.70;99.90;;;;;;4976988;28;20042;-70
2024/03/01 04:24:43;;;;;;;9.05;5.43;;;8.70;99.90;;;;;;4994622;28;20108;-70
2024/03/01 04:27:11;;;;;;;9.95;5.72;;;8.80;99.90;;;;;;4994202;28;20073;-70
2024/03/01 04:29:39;;;;;;;9.10;6.57;;;8.80;99.90;;;;;;5009150;28;20086;-71
2024/03/01 04:32:09;;;;;;;7.07;5.50;;;8.80;99.90;;;;;;4994380;28;20092;-70
2024/03/01 04:34:36;;;;;;;8.88;5.13;;;8.80;99.90;;;;;;4990775;28;20108;-70
2024/03/01 04:37:03;;;;;;;9.32;7.75;;;8.80;99.90;;;;;;4977034;28;20097;-69
2024/03/01 04:39:32;;;;;;;8.77;6.80;;;8.90;99.90;;;;;;4992799;28;20050;-70
2024/03/01 04:41:59;;;;;;;12.52;8.07;;;8.90;99.90;;;;;;4994092;28;20049;-70
2024/03/01 04:44:26;;;;;;;9.43;6.32;;;8.90;99.90;;;;;;5008983;28;20046;-70
2024/03/01 04:46:52;;;;;;;12.65;9.98;;;9.00;99.90;;;;;;4992827;28;20391;-70
2024/03/01 04:49:19;;;;;;;10.13;7.75;;;8.90;99.90;;;;;;5008975;28;20084;-70
2024/03/01 04:51:46;;;;;;;12.43;8.10;;;8.90;99.90;;;;;;4994124;28;20042;-70
2024/03/01 04:54:13;;;;;;;10.25;6.70;;;8.90;99.90;;;;;;4992860;28;20046;-70
2024/03/01 04:56:40;;;;;;;10.55;7.30;;;8.90;99.90;;;;;;4993985;28;20039;-70
2024/03/01 04:59:08;;;;;;;14.52;11.20;;;8.80;99.90;;;;;;4993913;28;20042;-70
2024/03/01 05:01:40;;;;;;;11.38;7.45;;;8.80;99.90;;;;;;4993649;28;20373;-70
2024/03/01 05:04:08;;;;;;;10.55;7.65;;;8.70;99.90;;;;;;4993769;28;20038;-70
2024/03/01 05:06:37;;;;;;;12.57;8.23;;;8.60;99.90;;;;;;4993558;28;20477;-70
2024/03/01 05:09:07;;;;;;;13.82;8.13;;;8.60;99.90;;;;;;4976335;28;20077;-70
2024/03/01 05:11:35;;;;;;;11.65;9.48;;;8.60;99.90;;;;;;4993606;28;20444;-70
2024/03/01 05:14:05;;;;;;;11.02;7.45;;;8.50;99.90;;;;;;4992256;28;20476;-70
2024/03/01 05:16:32;;;;;;;13.65;11.45;;;8.60;99.90;;;;;;4992123;28;20443;-70
2024/03/01 05:19:00;;;;;;;12.40;7.45;;;8.60;99.90;;;;;;5008499;28;20189;-70
2024/03/01 05:21:27;;;;;;;12.63;8.65;;;8.60;99.90;;;;;;4992078;28;20506;-70
2024/03/01 05:23:54;;;;;;;11.75;9.18;;;8.50;99.90;;;;;;4993333;28;20085;-71
2024/03/01 05:26:21;;;;;;;12.15;9.02;;;8.60;99.90;;;;;;4993226;28;20054;-70
2024/03/01 05:28:48;;;;;;;9.95;7.75;;;8.60;99.90;;;;;;4976029;28;20104;-70
2024/03/01 05:31:15;;;;;;;11.88;6.75;;;8.60;99.90;;;;;;4976238;28;20043;-70
2024/03/01 05:33:46;;;;;;;12.80;7.57;;;8.60;99.90;;;;;;5008252;28;20050;-70
2024/03/01 05:36:13;;;;;;;11.63;8.10;;;8.60;99.90;;;;;;4993396;28;20043;-70
2024/03/01 05:38:41;;;;;;;11.43;8.52;;;8.60;99.90;;;;;;4975772;28;20078;-70
2024/03/01 05:41:08;;;;;;;11.07;8.32;;;8.60;99.90;;;;;;4991237;28;20145;-70
2024/03/01 05:43:35;;;;;;;8.95;8.13;;;8.60;99.90;;;;;;4975770;28;20385;-70
2024/03/01 05:46:15;;;;;;;11.13;6.68;;;8.60;99.90;;;;;;5008199;28;20054;-70
2024/03/01 05:48:42;;;;;;;13.02;7.93;;;8.60;99.90;;;;;;5008063;28;20510;-70
2024/03/01 05:51:11;;;;;;;12.10;8.38;;;8.60;99.90;;;;;;5008101;28;20041;-70
2024/03/01 05:53:41;;;;;;;9.73;6.53;;;8.60;99.90;;;;;;5007915;28;20409;-70
2024/03/01 05:56:17;;;;;;;13.85;10.30;;;8.60;99.90;;;;;;4975729;28;20144;-70
2024/03/01 05:58:47;;;;;;;15.90;8.40;;;8.60;99.90;;;;;;4991490;28;20109;-70
2024/03/01 06:01:16;;;;;;;13.10;9.32;;;8.60;99.90;;;;;;4992080;28;20053;-71
2024/03/01 06:03:44;;;;;;;10.00;7.82;;;8.60;99.90;;;;;;4991277;28;20133;-70
2024/03/01 06:06:15;;;;;;;17.10;10.93;;;8.60;99.90;;;;;;4991058;28;20546;-70
2024/03/01 06:08:42;;;;;;;11.60;8.10;;;8.60;99.90;;;;;;4992922;28;20049;-70
2024/03/01 06:11:10;;;;;;;14.80;8.95;;;8.70;99.90;;;;;;4991828;28;20511;-70
2024/03/01 06:13:38;;;;;;;14.60;9.45;;;8.70;99.90;;;;;;4975559;28;20046;-70
2024/03/01 06:16:06;;;;;;;8.25;6.20;;;8.90;99.90;;;;;;4975822;28;20073;-70
2024/03/01 06:18:34;;;;;;;13.68;10.90;;;8.80;99.90;;;;;;4992574;28;20043;-71
2024/03/01 06:21:02;;;;;;;13.27;11.07;;;8.90;99.90;;;;;;4991685;28;20380;-70
2024/03/01 06:23:29;;;;;;;10.25;7.45;;;9.10;99.90;;;;;;4991089;28;20088;-70
2024/03/01 06:25:56;;;;;;;11.60;7.45;;;8.90;99.90;;;;;;4991516;28;20097;-70
2024/03/01 06:28:24;;;;;;;9.05;6.72;;;8.90;99.90;;;;;;4991498;28;20080;-69
2024/03/01 06:30:51;;;;;;;13.07;9.02;;;8.90;99.90;;;;;;4991274;28;20097;-69
2024/03/01 06:33:19;;;;;;;11.93;9.45;;;8.90;99.90;;;;;;4975429;28;20042;-69
2024/03/01 06:35:46;;;;;;;19.80;13.45;;;8.80;99.90;;;;;;4992380;28;20058;-70
2024/03/01 06:38:13;;;;;;;9.55;6.57;;;8.80;99.90;;;;;;5024133;28;20104;-70
2024/03/01 06:40:40;;;;;;;15.80;12.60;;;8.80;99.90;;;;;;4991323;28;20403;-70
2024/03/01 06:43:07;;;;;;;6.43;5.28;;;8.90;99.90;;;;;;4992576;28;20084;-70
2024/03/01 06:45:34;;;;;;;12.65;9.07;;;8.90;99.90;;;;;;4991305;28;20092;-70
2024/03/01 06:48:01;;;;;;;14.35;10.57;;;9.00;99.90;;;;;;4991390;28;20073;-70
2024/03/01 06:50:28;;;;;;;9.70;6.75;;;8.90;99.90;;;;;;4991397;28;20496;-69
2024/03/01 06:52:55;;;;;;;12.15;8.45;;;9.00;99.90;;;;;;4995892;28;20042;-70
2024/03/01 06:55:22;;;;;;;10.38;7.07;;;9.00;99.90;;;;;;4996195;28;20558;-70
2024/03/01 06:57:49;;;;;;;11.15;7.28;;;9.10;99.90;;;;;;4996051;28;20042;-70
2024/03/01 07:00:17;;;;;;;12.00;7.40;;;9.10;99.90;;;;;;4994926;28;20070;-70
2024/03/01 07:02:44;;;;;;;9.70;6.68;;;9.10;99.90;;;;;;4994460;28;20042;-70
2024/03/01 07:05:11;;;;;;;10.68;7.45;;;9.20;99.90;;;;;;4994758;28;20050;-69
2024/03/01 07:07:38;;;;;;;17.13;8.82;;;9.20;99.90;;;;;;4994608;28;20077;-70
2024/03/01 07:10:07;;;;;;;9.93;7.35;;;9.20;99.90;;;;;;4995938;28;20121;-69
2024/03/01 07:12:37;;;;;;;14.32;8.38;;;9.20;99.90;;;;;;4995673;28;20052;-70
2024/03/01 07:15:08;;;;;;;16.10;9.52;;;9.20;99.90;;;;;;4978469;28;20836;-70
2024/03/01 07:17:35;;;;;;;8.02;6.28;;;9.20;99.90;;;;;;4995618;28;20076;-70
2024/03/01 07:20:02;;;;;;;12.48;7.65;;;9.30;99.90;;;;;;4994341;28;20046;-70
2024/03/01 07:22:29;;;;;;;12.55;10.00;;;9.20;99.90;;;;;;4978091;28;20039;-70
2024/03/01 07:24:56;;;;;;;10.27;7.38;;;9.20;99.90;;;;;;4995285;28;20043;-70
2024/03/01 07:27:23;;;;;;;13.38;9.90;;;9.20;99.90;;;;;;4994378;28;20046;-70
2024/03/01 07:29:50;;;;;;;12.98;8.65;;;9.20;99.90;;;;;;4993978;28;20053;-70
2024/03/01 07:32:17;;;;;;;12.18;9.13;;;9.20;99.90;;;;;;4994241;28;20105;-70
2024/03/01 07:34:44;;;;;;;15.07;12.95;;;9.30;99.90;;;;;;4961791;28;20093;-70
2024/03/01 07:37:12;;;;;;;11.98;10.77;;;9.20;99.90;;;;;;4995528;28;20454;-70
2024/03/01 07:39:39;;;;;;;12.73;10.02;;;9.20;99.90;;;;;;4993964;28;20078;-70
2024/03/01 07:42:06;;;;;;;11.55;9.57;;;9.10;99.90;;;;;;4995081;28;20042;-70
2024/03/01 07:44:33;;;;;;;14.05;9.38;;;9.10;99.90;;;;;;4993952;28;20077;-71
2024/03/01 07:47:04;;;;;;;11.43;9.00;;;8.90;99.90;;;;;;4993789;28;20137;-70
2024/03/01 07:49:32;;;;;;;12.77;9.77;;;8.70;99.90;;;;;;4993762;28;20104;-70
2024/03/01 07:52:00;;;;;;;8.07;5.63;;;8.60;99.90;;;;;;4977627;28;20377;-70
2024/03/01 07:54:28;;;;;;;7.93;7.07;;;8.50;99.90;;;;;;4994972;28;20385;-70
2024/03/01 07:56:56;;;;;;;5.20;3.88;;;8.40;99.90;;;;;;4993487;28;20052;-70
2024/03/01 07:59:22;;;;;;;5.03;4.03;;;8.40;99.90;;;;;;4994925;28;20053;-70
2024/03/01 08:01:50;;;;;;;3.63;2.20;;;8.30;99.90;;;;;;4994686;28;20046;-69
2024/03/01 08:04:17;;;;;;;2.35;2.13;;;8.20;99.90;;;;;;4992947;28;20046;-70
2024/03/01 08:06:44;;;;;;;2.38;2.17;;;8.20;99.90;;;;;;4994665;28;20045;-70
2024/03/01 08:09:22;;;;;;;1.58;1.48;;;8.20;99.90;;;;;;4993526;28;20117;-70
2024/03/01 08:11:49;;;;;;;1.67;1.58;;;8.20;99.90;;;;;;4994587;28;20042;-70
2024/03/01 08:14:21;;;;;;;3.33;1.80;;;8.20;99.90;;;;;;4994737;28;20396;-70
2024/03/01 08:16:54;;;;;;;1.10;1.00;;;8.30;99.90;;;;;;4993242;28;20057;-69
2024/03/01 08:19:33;;;;;;;2.35;1.70;;;8.30;99.90;;;;;;4994664;28;20046;-69
2024/03/01 08:22:15;;;;;;;1.00;1.00;;;8.30;99.90;;;;;;4992923;28;20054;-70
2024/03/01 08:24:47;;;;;;;1.67;1.40;;;8.30;99.90;;;;;;4993264;28;20046;-70
2024/03/01 08:27:26;;;;;;;1.00;0.90;;;8.10;99.90;;;;;;4994419;28;20038;-70
2024/03/01 08:29:53;;;;;;;1.15;1.05;;;8.10;99.90;;;;;;4994189;28;20054;-70
2024/03/01 08:32:32;;;;;;;0.98;0.93;;;8.00;99.90;;;;;;4993033;28;20069;-70
2024/03/01 08:35:00;;;;;;;1.88;1.30;;;8.00;99.90;;;;;;4992573;28;20068;-70
2024/03/01 08:37:29;;;;;;;1.35;1.25;;;7.90;99.90;;;;;;4992916;28;20105;-70
2024/03/01 08:39:57;;;;;;;2.22;1.05;;;7.90;99.90;;;;;;4993986;28;20066;-70
2024/03/01 08:42:28;;;;;;;2.20;1.83;;;7.90;99.90;;;;;;4994021;28;20459;-70
2024/03/01 08:44:59;;;;;;;1.42;0.80;;;8.00;99.90;;;;;;4976507;28;20042;-70
2024/03/01 08:47:36;;;;;;;1.88;0.90;;;8.00;99.90;;;;;;4994149;28;20042;-70
2024/03/01 08:50:15;;;;;;;1.80;1.05;;;8.10;99.90;;;;;;4993889;28;20041;-69
2024/03/01 08:52:42;;;;;;;1.15;0.90;;;8.30;99.90;;;;;;4994028;28;20056;-69
2024/03/01 08:55:09;;;;;;;1.10;1.00;;;8.40;99.90;;;;;;4976425;28;20042;-70
2024/03/01 08:57:37;;;;;;;1.55;1.35;;;8.70;99.90;;;;;;4992691;28;20038;-70
2024/03/01 09:00:26;;;;;;;0.60;0.60;;;8.80;99.90;;;;;;4993558;28;20054;-70
2024/03/01 09:02:53;;;;;;;1.48;1.10;;;8.90;99.90;;;;;;4993593;28;20053;-69
2024/03/01 09:05:21;;;;;;;2.45;0.60;;;9.00;99.90;;;;;;4993738;28;20038;-70
2024/03/01 09:07:49;;;;;;;0.70;0.70;;;9.00;99.90;;;;;;4992283;28;20042;-70
2024/03/01 09:10:28;;;;;;;1.73;1.63;;;9.20;99.90;;;;;;4992442;28;20377;-70
2024/03/01 09:12:55;;;;;;;1.48;0.88;;;9.20;99.90;;;;;;4992156;28;20046;-70
2024/03/01 09:15:24;;;;;;;0.70;0.50;;;9.10;99.90;;;;;;4993584;28;20042;-70
2024/03/01 09:17:51;;;;;;;0.70;0.57;;;9.20;99.90;;;;;;4992066;28;20097;-70
2024/03/01 09:20:36;;;;;;;1.05;0.80;;;9.20;99.90;;;;;;4992113;28;20546;-70
2024/03/01 09:23:12;;;;;;;0.30;0.30;;;9.30;99.90;;;;;;4993291;28;20048;-70
2024/03/01 09:25:46;;;;;;;1.33;0.60;;;9.40;99.90;;;;;;4993507;28;20054;-70
2024/03/01 09:28:14;;;;;;;2.55;0.90;;;9.50;99.90;;;;;;4993230;28;20049;-70
2024/03/01 09:30:45;;;;;;;0.70;0.70;;;9.50;99.90;;;;;;4993377;28;20052;-70
2024/03/01 09:33:15;;;;;;;0.85;0.68;;;9.50;99.90;;;;;;4991896;28;20057;-70
2024/03/01 09:35:46;;;;;;;1.60;1.23;;;9.70;99.90;;;;;;4991955;28;20388;-70
2024/03/01 09:38:15;;;;;;;3.53;2.05;;;9.80;99.90;;;;;;4991902;28;20407;-70
2024/03/01 09:40:50;;;;;;;3.83;2.33;;;9.80;99.90;;;;;;4991904;28;20038;-70
2024/03/01 09:43:26;;;;;;;3.42;1.80;;;9.80;99.90;;;;;;4991766;28;20056;-70
2024/03/01 09:46:06;;;;;;;3.20;1.45;;;9.80;99.90;;;;;;4993135;28;20050;-70
2024/03/01 09:48:52;;;;;;;1.40;1.27;;;9.70;99.90;;;;;;4991971;28;20050;-70
2024/03/01 09:51:45;;;;;;;0.98;0.88;;;9.60;99.90;;;;;;4993622;28;20097;-70
2024/03/01 09:54:37;;;;;;;1.15;0.90;;;9.60;99.90;;;;;;4998643;28;20061;-70
2024/03/01 09:57:22;;;;;;;2.90;2.67;;;9.50;99.90;;;;;;4991952;28;20392;-71
2024/03/01 10:00:04;;;;;;;1.90;1.52;;;9.40;99.90;;;;;;4991768;28;20050;-69
2024/03/01 10:03:08;;;;;;;2.65;1.88;;;9.30;99.90;;;;;;4992223;28;20117;-70
2024/03/01 10:06:00;;;;;;;2.05;1.77;;;9.20;99.90;;;;;;4992711;28;20109;-70
2024/03/01 10:08:32;;;;;;;0.90;0.65;;;9.10;99.90;;;;;;4992711;28;20053;-70
2024/03/01 10:11:34;;;;;;;1.42;0.90;;;9.10;99.90;;;;;;4992872;28;20038;-70
2024/03/01 10:14:07;;;;;;;;;;;9.10;99.90;;;;;;4984834;28;20061;-70
2024/03/01 10:16:48;;;;;;;1.60;1.50;;;9.10;99.90;;;;;;4991687;28;19922;-70
2024/03/01 10:19:41;;;;;;;2.00;1.58;;;9.00;99.90;;;;;;4992669;28;20488;-70
2024/03/01 10:22:24;;;;;;;1.30;1.20;;;9.00;99.90;;;;;;4992696;28;20432;-70
2024/03/01 10:25:01;;;;;;;;;;;9.00;99.90;;;;;;4993178;28;20124;-70
2024/03/01 10:27:37;;;;;;;1.80;1.35;;;8.90;99.90;;;;;;4995727;28;19921;-70
2024/03/01 10:30:05;;;;;;;1.40;1.02;;;8.80;99.90;;;;;;4979081;28;20057;-70
2024/03/01 10:32:53;;;;;;;3.10;1.35;;;8.80;99.90;;;;;;4995495;28;20043;-70
2024/03/01 10:35:24;;;;;;;3.55;1.55;;;8.90;99.90;;;;;;4996255;28;20516;-70
2024/03/01 10:38:07;;;;;;;2.85;1.35;;;8.90;99.90;;;;;;4996597;28;20053;-70
2024/03/01 10:40:50;;;;;;;3.22;1.48;;;8.90;99.90;;;;;;4995289;28;20042;-70
2024/03/01 10:43:42;;;;;;;2.17;1.25;;;8.90;99.90;;;;;;4995019;28;20105;-70
2024/03/01 10:46:15;;;;;;;2.75;2.30;;;8.90;99.90;;;;;;4994995;28;20478;-70
2024/03/01 10:48:48;;;;;;;4.35;2.03;;;9.00;99.90;;;;;;4996313;28;20035;-70
2024/03/01 10:51:17;;;;;;;3.53;1.77;;;9.00;99.90;;;;;;4996169;28;20042;-70
2024/03/01 10:53:51;;;;;;;2.45;1.70;;;8.90;99.90;;;;;;4995014;28;20093;-69
2024/03/01 10:56:20;;;;;;;3.17;2.75;;;8.90;99.90;;;;;;4994940;28;20053;-70
2024/03/01 10:58:56;;;;;;;2.55;1.70;;;9.00;99.90;;;;;;4994952;28;20046;-70
2024/03/01 11:01:24;;;;;;;1.95;1.38;;;9.10;99.90;;;;;;4994707;28;20128;-70
2024/03/01 11:03:58;;;;;;;2.53;1.92;;;9.20;99.90;;;;;;4994748;28;20495;-70
2024/03/01 11:06:35;;;;;;;3.05;1.40;;;9.40;99.90;;;;;;4994701;28;20539;-71
2024/03/01 11:09:16;;;;;;;2.30;1.08;;;9.70;99.90;;;;;;4962475;28;20046;-70
2024/03/01 11:11:57;;;;;;;2.50;1.55;;;10.00;99.90;;;;;;4994772;28;20097;-70
2024/03/01 11:14:26;;;;;;;1.73;1.15;;;10.30;99.90;;;;;;4994434;28;20113;-70
2024/03/01 11:16:55;;;;;;;2.50;1.73;;;10.90;99.90;;;;;;4994628;28;20046;-70
2024/03/01 11:19:24;;;;;;;1.88;1.65;;;11.40;97.90;;;;;;4995480;28;20046;-71
2024/03/01 11:22:20;;;;;;;4.32;2.33;;;11.90;97.30;;;;;;4994679;28;20050;-70
2024/03/01 11:25:04;;;;;;;1.70;1.60;;;12.40;95.40;;;;;;4994399;28;20038;-71
2024/03/01 11:27:33;;;;;;;1.60;1.50;;;12.20;95.60;;;;;;4995461;28;20550;-70
2024/03/01 11:30:09;;;;;;;1.95;1.85;;;12.20;95.40;;;;;;4994512;28;20050;-70
2024/03/01 11:32:42;;;;;;;2.35;2.00;;;12.30;94.70;;;;;;4994383;28;20047;-70
2024/03/01 11:35:26;;;;;;;2.55;1.92;;;12.10;94.70;;;;;;4995234;28;20058;-70
2024/03/01 11:38:34;;;;;;;1.90;1.80;;;12.10;95.40;;;;;;4994252;28;20512;-70
2024/03/01 11:41:33;;;;;;;3.42;2.63;;;12.40;94.60;;;;;;4972524;28;20062;-70
2024/03/01 11:44:29;;;;;;;3.35;3.08;;;13.00;93.00;;;;;;4994093;28;20096;-70
2024/03/01 11:47:30;;;;;;;2.15;1.83;;;12.70;93.50;;;;;;4995295;28;20093;-71
2024/03/01 11:50:31;;;;;;;3.58;2.78;;;12.80;93.90;;;;;;4994018;28;20105;-70
2024/03/01 11:53:26;;;;;;;4.05;3.28;;;13.10;93.50;;;;;;4993952;28;20046;-70
2024/03/01 11:55:54;;;;;;;3.88;2.83;;;13.10;92.90;;;;;;4994145;28;20489;-70
2024/03/01 11:58:35;;;;;;;3.05;2.38;;;12.60;93.60;;;;;;4994910;28;20467;-70
2024/03/01 12:01:27;;;;;;;2.75;2.10;;;12.60;93.80;;;;;;4995166;28;20611;-70
2024/03/01 12:04:10;;;;;;;2.85;2.47;;;12.60;93.70;;;;;;4991681;28;20105;-70
2024/03/01 12:06:58;;;;;;;1.63;1.52;;;12.60;93.00;;;;;;4994445;28;20046;-70
2024/03/01 12:09:47;;;;;;;3.42;3.00;;;12.30;93.00;;;;;;4994476;28;20496;-70
2024/03/01 12:12:27;;;;;;;3.78;2.58;;;12.10;92.60;;;;;;4977342;28;20062;-70
2024/03/01 12:15:05;;;;;;;4.18;3.78;;;12.60;93.30;;;;;;4994854;28;20408;-70
2024/03/01 12:17:55;;;;;;;3.25;2.92;;;13.30;92.10;;;;;;4993238;28;20101;-70
2024/03/01 12:20:22;;;;;;;3.58;1.90;;;13.70;91.50;;;;;;4993178;28;20082;-70
2024/03/01 12:23:17;;;;;;;2.33;1.73;;;14.10;91.10;;;;;;4993495;28;20074;-71
2024/03/01 12:25:44;;;;;;;3.63;1.90;;;14.00;90.40;;;;;;4994497;28;20062;-70
2024/03/01 12:28:24;;;;;;;2.60;2.10;;;13.70;90.80;;;;;;4993336;28;20048;-70
2024/03/01 12:31:11;;;;;;;5.57;3.35;;;13.90;90.60;;;;;;4993262;28;20047;-70
2024/03/01 12:34:01;;;;;;;1.92;1.65;;;14.00;90.20;;;;;;4994050;28;20042;-70
2024/03/01 12:36:42;;;;;;;4.57;2.78;;;14.20;90.30;;;;;;4994196;28;20439;-70
2024/03/01 12:39:18;;;;;;;2.53;1.95;;;14.30;88.50;;;;;;4994468;28;20555;-71
2024/03/01 12:42:07;;;;;;;3.53;2.30;;;14.60;88.90;;;;;;4994372;28;20050;-70
2024/03/01 12:45:05;;;;;;;2.35;2.15;;;14.90;86.70;;;;;;4992727;28;20038;-70
2024/03/01 12:47:59;;;;;;;2.97;2.65;;;15.20;86.20;;;;;;4992741;28;20050;-70
2024/03/01 12:50:46;;;;;;;2.40;2.20;;;15.40;85.40;;;;;;4993715;28;20053;-70
2024/03/01 12:53:32;;;;;;;2.42;2.22;;;15.70;85.60;;;;;;4992827;28;20097;-70
2024/03/01 12:56:26;;;;;;;3.15;2.85;;;15.90;82.70;;;;;;4993842;28;20055;-70
2024/03/01 12:59:11;;;;;;;3.60;3.20;;;15.70;83.40;;;;;;4992622;28;20070;-70
2024/03/01 13:02:15;;;;;;;3.45;2.70;;;15.70;83.10;;;;;;4993515;28;20053;-70
2024/03/01 13:04:54;;;;;;;3.80;2.15;;;15.60;83.40;;;;;;4991899;28;20053;-70
2024/03/01 13:07:24;;;;;;;3.65;2.60;;;15.70;83.20;;;;;;4992261;28;20399;-70
2024/03/01 13:09:53;;;;;;;3.60;3.28;;;15.50;83.20;;;;;;4992555;28;20385;-70
2024/03/01 13:12:24;;;;;;;4.38;3.80;;;15.30;83.90;;;;;;4992518;28;20038;-70
2024/03/01 13:14:59;;;;;;;2.25;2.05;;;15.50;82.10;;;;;;4976784;28;20050;-70
2024/03/01 13:17:30;;;;;;;2.90;2.40;;;15.70;82.70;;;;;;4993410;28;20042;-70